KSUW

Richard I Bong Airport

Superior, Wisconsin, USA
METAR KSUW 190855Z AUTO 13004KT 10SM OVC020 12/10 A3006 RMK AO2 T01150096
Observed Flight Rules
Sep-19 @ 08:55 UTC (21 minutes ago) Marginal Visual Flight Rules
Wind Visibility Clouds
130° at 4 knots 10 miles
  • Overcast at 2,000' AGL
Temperatures Readings
Current 12°C / 54°F
Dewpoint 10°C / 50°F
Humidity 88%
Altimeter 30.06" Hg
Pressure 1018 hPa
Elevation 206
METAR KSUW 190855Z AUTO 13004KT 10SM OVC020 12/10 A3006 RMK AO2 T01150096
Observed Flight Rules
Sep-19 @ 08:55 UTC
(21 minutes ago)
MVFR
Wind Visibility
130° at 4 knots 10 miles
Clouds
  • Overcast at 2,000' AGL
Temperature Dewpoint
12°C / 54°F 10°C / 50°F
Humidity Altimeter Pressure
88% 30.06" Hg 1018 hPa